PRO weather

Pororó Airport
Codazzi, César Department, Colombia

Public forecast

Using degrees Celsius for public forecast. Weather courtesy of forecast.io.

METAR (pilot weather report)

Closest report is Alfonso López Pumarejo Airport, 29.9 nm (55.4 km) N. Retrieved 2019/04/22 22:00 UTC (23 minutes ago):

SKVP 222200Z 32006KT 9000 -DZ SCT015TCU SCT090 26/23 A2985 RETSRA RMK TCU/W/NE

TAF (pilot weather forecast)

Forecast is more than 12 hours old.

Closest forecast is Almirante Padilla Airport, 97.6 nm (180.7 km) NNE. Retrieved 2013/12/29 00:30 UTC (5 years ago):

TAF SKRH 262200Z 2700/2724 07010KT 9999 FEW020 SCT200 TEMPO 2701/2705 FEW017 TEMPO 2709/2711 CAVOK TEMPO 2719/2723 12007KT FEW015 TX32/2718Z TN23/2710Z